Terminal Aerodrome Forecast
Issued by NWS Denver/Boulder, CO

Home | Current Version | Previous Version | Text Only | Print | Product List | Glossary On
Versions: 1 2 3 4 5 6 7 8 9 10 11 12 13 14 15 16 17 18 19 20 21 22 23 24 25 26 27 28 29 30 31 32 33 34 35 36 37 38 39 40 41 42 43 44 45 46 47 48 49 50
000
FTUS45 KBOU 191739
TAFDEN
TAF
KDEN 191739Z 1918/2024 33007KT P6SM FEW140 BKN220
     FM191900 01008KT P6SM FEW140 BKN220
     FM192100 07008KT P6SM FEW140 BKN220
     FM200100 15007KT P6SM FEW140 SCT220
     FM200600 22008KT P6SM FEW220
     FM201700 17009KT P6SM FEW140 SCT220
     FM202200 10008KT P6SM FEW120 BKN220=

USA.gov is the U.S. government's official web portal to all federal, state and local government web resources and services.